createdAt,value
2022-11-02T00:01:03.081Z,11.89
2022-11-02T00:03:31.096Z,11.84
2022-11-02T00:05:59.052Z,12.02
2022-11-02T00:08:28.404Z,12.28
2022-11-02T00:10:56.464Z,12.42
2022-11-02T00:13:24.524Z,12.43
2022-11-02T00:15:52.540Z,12.35
2022-11-02T00:18:20.833Z,12.42
2022-11-02T00:20:49.255Z,13.01
2022-11-02T00:23:17.422Z,12.46
2022-11-02T00:25:50.030Z,12.46
2022-11-02T00:28:18.148Z,12.33
2022-11-02T00:30:46.879Z,12.30
2022-11-02T00:33:14.834Z,12.10
2022-11-02T00:35:45.066Z,12.07
2022-11-02T00:38:13.132Z,12.08
2022-11-02T00:40:41.131Z,12.24
2022-11-02T00:43:10.503Z,12.21
2022-11-02T00:45:38.674Z,12.31
2022-11-02T00:48:07.538Z,12.02
2022-11-02T00:50:35.733Z,12.21
2022-11-02T00:53:04.466Z,12.05
2022-11-02T00:55:32.467Z,12.08
2022-11-02T00:58:04.506Z,12.47
2022-11-02T01:00:34.119Z,11.80
2022-11-02T01:03:02.552Z,11.88
2022-11-02T01:05:31.162Z,11.93
2022-11-02T01:07:59.237Z,12.03
2022-11-02T01:10:27.761Z,12.01
2022-11-02T01:12:55.697Z,12.10
2022-11-02T01:15:23.740Z,12.08
2022-11-02T01:17:53.620Z,11.99
2022-11-02T01:20:21.702Z,12.08
2022-11-02T01:22:49.637Z,12.17
2022-11-02T01:25:17.828Z,12.51
2022-11-02T01:27:46.109Z,12.36
2022-11-02T01:30:14.972Z,12.12
2022-11-02T01:32:45.009Z,11.81
2022-11-02T01:35:14.419Z,12.40
2022-11-02T01:37:42.394Z,12.15
2022-11-02T01:40:11.526Z,12.16
2022-11-02T01:42:39.660Z,12.46
2022-11-02T01:45:08.618Z,12.32
2022-11-02T01:47:39.695Z,12.58
2022-11-02T01:50:13.360Z,12.26
2022-11-02T01:52:43.405Z,12.41
2022-11-02T01:55:14.872Z,12.64
2022-11-02T01:57:46.815Z,12.92
2022-11-02T02:00:17.522Z,12.42
2022-11-02T02:02:52.549Z,12.56
2022-11-02T02:05:23.678Z,12.66
2022-11-02T02:07:54.807Z,12.15
2022-11-02T02:10:23.146Z,12.16
2022-11-02T02:12:51.514Z,12.32
2022-11-02T02:15:23.205Z,12.57
2022-11-02T02:17:57.099Z,12.49
2022-11-02T02:20:41.242Z,13.18
2022-11-02T02:23:40.158Z,12.51
2022-11-02T02:26:43.339Z,12.59
2022-11-02T02:29:20.549Z,12.47
2022-11-02T02:31:56.866Z,12.51
2022-11-02T02:34:31.029Z,12.68
2022-11-02T02:37:04.884Z,12.47
2022-11-02T02:39:42.069Z,12.40
2022-11-02T02:42:17.347Z,12.42
2022-11-02T02:44:55.823Z,12.50
2022-11-02T02:47:29.152Z,12.31
2022-11-02T02:50:04.788Z,12.36
2022-11-02T02:52:36.021Z,12.47
2022-11-02T02:55:06.886Z,12.43
2022-11-02T02:57:37.391Z,12.50
2022-11-02T03:00:14.413Z,12.18
2022-11-02T03:02:44.779Z,12.51
2022-11-02T03:05:25.197Z,12.62
2022-11-02T03:07:53.996Z,12.52
2022-11-02T03:10:27.195Z,12.41
2022-11-02T03:13:04.597Z,12.23
2022-11-02T03:15:39.539Z,12.07
2022-11-02T03:18:18.564Z,12.41
2022-11-02T03:20:57.151Z,12.10
2022-11-02T03:23:31.465Z,12.49
2022-11-02T03:26:06.548Z,12.59
2022-11-02T03:28:54.660Z,12.06
2022-11-02T03:31:35.033Z,12.17
2022-11-02T03:34:14.796Z,12.23
2022-11-02T03:36:48.015Z,12.30
2022-11-02T03:39:21.197Z,12.66
2022-11-02T03:41:51.232Z,12.56
2022-11-02T03:44:24.968Z,11.94
2022-11-02T03:47:01.111Z,12.32
2022-11-02T03:49:32.038Z,11.96
2022-11-02T03:52:05.783Z,12.16
2022-11-02T03:54:43.778Z,11.82
2022-11-02T03:57:18.778Z,11.85
2022-11-02T03:59:47.251Z,11.63
2022-11-02T04:02:18.447Z,11.84
2022-11-02T04:04:51.850Z,11.86
2022-11-02T04:07:26.706Z,11.73
2022-11-02T04:09:54.789Z,11.77
2022-11-02T04:12:40.160Z,11.68
2022-11-02T04:15:10.664Z,12.02
2022-11-02T04:17:59.701Z,11.93
2022-11-02T04:20:28.192Z,12.33
2022-11-02T04:23:10.025Z,12.23
2022-11-02T04:25:38.148Z,12.40
2022-11-02T04:28:15.682Z,12.31
2022-11-02T04:30:50.409Z,12.32
2022-11-02T04:33:32.883Z,12.11
2022-11-02T04:36:09.930Z,12.03
2022-11-02T04:38:42.602Z,11.65
2022-11-02T04:41:43.104Z,11.86
2022-11-02T04:44:29.390Z,11.68
2022-11-02T04:47:02.666Z,11.82
2022-11-02T04:49:34.738Z,11.69
2022-11-02T04:52:04.350Z,11.72
2022-11-02T04:54:35.004Z,11.72
2022-11-02T04:57:05.352Z,11.56
2022-11-02T04:59:34.424Z,11.54
2022-11-02T05:02:02.581Z,11.49
2022-11-02T05:04:30.740Z,11.81
2022-11-02T05:07:01.800Z,11.77
2022-11-02T05:09:32.434Z,11.96
2022-11-02T05:12:01.993Z,11.84
2022-11-02T05:14:30.049Z,11.87
2022-11-02T05:16:58.808Z,11.58
2022-11-02T05:19:26.949Z,11.26
2022-11-02T05:21:55.221Z,11.32
2022-11-02T05:24:25.834Z,11.34
2022-11-02T05:26:54.092Z,11.35
2022-11-02T05:29:24.832Z,11.37
2022-11-02T05:31:53.823Z,11.50
2022-11-02T05:34:22.201Z,11.59
2022-11-02T05:36:50.890Z,11.79
2022-11-02T05:39:18.968Z,11.71
2022-11-02T05:41:48.861Z,11.69
2022-11-02T05:44:16.831Z,11.69
2022-11-02T05:46:47.179Z,11.56
2022-11-02T05:49:15.112Z,11.89
2022-11-02T05:51:45.046Z,11.72
2022-11-02T05:54:12.990Z,11.62
2022-11-02T05:56:41.109Z,11.56
2022-11-02T05:59:10.417Z,11.60
2022-11-02T06:01:39.122Z,11.47
2022-11-02T06:04:07.410Z,11.67
2022-11-02T06:06:35.354Z,11.58
2022-11-02T06:09:07.123Z,11.62
2022-11-02T06:11:35.707Z,11.68
2022-11-02T06:14:04.407Z,11.75
2022-11-02T06:16:33.806Z,11.84
2022-11-02T06:19:01.813Z,11.59
2022-11-02T06:21:29.852Z,11.66
2022-11-02T06:23:59.022Z,11.66
2022-11-02T06:26:27.139Z,11.69
2022-11-02T06:28:55.077Z,11.84
2022-11-02T06:31:23.155Z,11.53
2022-11-02T06:33:52.455Z,11.94
2022-11-02T06:36:20.426Z,11.93
2022-11-02T06:38:48.426Z,11.84
2022-11-02T06:41:16.395Z,11.55
2022-11-02T06:43:44.468Z,11.83
2022-11-02T06:46:12.409Z,11.72
2022-11-02T06:48:40.341Z,12.12
2022-11-02T06:51:09.805Z,11.83
2022-11-02T06:53:37.775Z,12.10
2022-11-02T06:56:06.154Z,12.17
2022-11-02T06:58:34.083Z,12.15
2022-11-02T07:01:03.925Z,12.17
2022-11-02T07:03:32.463Z,12.30
2022-11-02T07:06:00.765Z,11.89
2022-11-02T07:08:30.096Z,12.06
2022-11-02T07:10:58.891Z,11.83
2022-11-02T07:13:26.994Z,12.16
2022-11-02T07:15:55.920Z,12.36
2022-11-02T07:18:24.098Z,12.26
2022-11-02T07:20:52.342Z,12.63
2022-11-02T07:23:23.858Z,12.07
2022-11-02T07:25:53.420Z,11.92
2022-11-02T07:28:21.456Z,12.24
2022-11-02T07:30:50.349Z,12.19
2022-11-02T07:33:18.348Z,12.12
2022-11-02T07:35:46.311Z,12.67
2022-11-02T07:38:14.284Z,12.47
2022-11-02T07:40:42.386Z,12.94
2022-11-02T07:43:11.865Z,12.82
2022-11-02T07:45:48.207Z,12.94
2022-11-02T07:48:16.187Z,13.18
2022-11-02T07:50:44.219Z,13.16
2022-11-02T07:53:12.305Z,13.39
2022-11-02T07:55:40.759Z,13.44
2022-11-02T07:58:14.122Z,13.24
2022-11-02T08:00:42.533Z,13.55
2022-11-02T08:03:12.760Z,13.67
2022-11-02T08:05:42.569Z,13.42
2022-11-02T08:08:13.788Z,13.74
2022-11-02T08:10:42.679Z,13.48
2022-11-02T08:13:13.482Z,13.85
2022-11-02T08:15:41.530Z,14.23
2022-11-02T08:18:14.386Z,13.97
2022-11-02T08:20:42.991Z,13.54
2022-11-02T08:23:11.799Z,13.53
2022-11-02T08:25:41.258Z,13.74
2022-11-02T08:28:13.332Z,14.17
2022-11-02T08:30:42.714Z,14.35
2022-11-02T08:33:15.588Z,14.50
2022-11-02T08:35:44.896Z,14.68
2022-11-02T08:38:13.759Z,14.69
2022-11-02T08:40:42.106Z,14.97
2022-11-02T08:43:11.663Z,15.17
2022-11-02T08:48:30.416Z,15.10
2022-11-02T08:50:58.661Z,14.75
2022-11-02T08:53:26.811Z,14.97
2022-11-02T08:55:58.261Z,14.49
2022-11-02T08:58:26.746Z,14.86
2022-11-02T09:00:55.593Z,14.80
2022-11-02T09:03:26.789Z,14.35
2022-11-02T09:06:00.907Z,15.19
2022-11-02T09:08:29.476Z,14.98
2022-11-02T09:11:00.819Z,14.43
2022-11-02T09:13:29.431Z,14.33
2022-11-02T09:15:58.997Z,15.30
2022-11-02T09:18:27.552Z,15.98
2022-11-02T09:20:55.575Z,15.76
2022-11-02T09:23:25.231Z,14.81
2022-11-02T09:25:53.677Z,15.24
2022-11-02T09:28:22.221Z,15.24
2022-11-02T09:30:50.292Z,15.32
2022-11-02T09:33:18.485Z,14.97
2022-11-02T09:35:47.801Z,15.57
2022-11-02T09:38:18.486Z,15.81
2022-11-02T09:40:55.708Z,16.06
2022-11-02T09:43:37.542Z,15.59
2022-11-02T09:46:09.028Z,15.59
2022-11-02T09:48:40.864Z,16.12
2022-11-02T09:51:13.127Z,15.91
2022-11-02T09:53:49.730Z,15.60
2022-11-02T09:56:20.907Z,15.48
2022-11-02T09:58:54.541Z,16.24
2022-11-02T10:01:43.362Z,15.37
2022-11-02T10:04:35.470Z,15.70
2022-11-02T10:07:10.303Z,15.58
2022-11-02T10:09:47.955Z,15.56
2022-11-02T10:12:27.937Z,16.27
2022-11-02T10:15:04.143Z,16.59
2022-11-02T10:17:37.475Z,16.34
2022-11-02T10:20:18.900Z,16.59
2022-11-02T10:22:48.727Z,16.14
2022-11-02T10:25:18.391Z,16.60
2022-11-02T10:27:54.845Z,17.10
2022-11-02T10:30:22.833Z,16.56
2022-11-02T10:32:53.886Z,16.94
2022-11-02T10:35:41.040Z,17.22
2022-11-02T10:38:25.992Z,16.99
2022-11-02T10:41:16.109Z,17.15
2022-11-02T10:44:04.412Z,17.44
2022-11-02T10:46:47.705Z,17.41
2022-11-02T10:49:31.001Z,16.96
2022-11-02T10:51:59.054Z,17.31
2022-11-02T10:54:31.010Z,17.62
2022-11-02T10:57:01.672Z,17.25
2022-11-02T10:59:31.103Z,17.26
2022-11-02T11:02:11.035Z,17.54
2022-11-02T11:04:39.077Z,17.93
2022-11-02T11:07:09.977Z,17.49
2022-11-02T11:09:47.253Z,17.64
2022-11-02T11:12:20.917Z,17.38
2022-11-02T11:20:35.445Z,17.83
2022-11-02T11:23:25.396Z,17.48
2022-11-02T11:25:59.389Z,17.91
2022-11-02T11:28:30.667Z,17.52
2022-11-02T11:31:12.199Z,17.11
2022-11-02T11:33:49.551Z,17.56
2022-11-02T11:36:28.973Z,17.88
2022-11-02T11:39:00.041Z,18.44
2022-11-02T11:41:29.111Z,17.86
2022-11-02T11:43:57.311Z,17.72
2022-11-02T11:46:40.487Z,17.62
2022-11-02T11:49:31.105Z,17.26
2022-11-02T11:52:05.348Z,17.89
2022-11-02T11:54:34.225Z,17.71
2022-11-02T11:57:22.468Z,17.50
2022-11-02T11:59:53.133Z,18.06
2022-11-02T12:02:25.610Z,18.15
2022-11-02T12:05:00.757Z,18.05
2022-11-02T12:07:46.848Z,18.31
2022-11-02T12:10:23.769Z,18.63
2022-11-02T12:13:06.465Z,19.34
2022-11-02T12:15:55.554Z,18.56
2022-11-02T12:18:45.970Z,18.39
2022-11-02T12:21:28.376Z,18.35
2022-11-02T12:24:19.371Z,18.30
2022-11-02T12:26:57.475Z,18.82
2022-11-02T12:29:53.633Z,19.14
2022-11-02T12:32:34.377Z,19.27
2022-11-02T12:35:32.819Z,19.31
2022-11-02T12:38:24.439Z,18.72
2022-11-02T12:41:03.099Z,18.57
2022-11-02T12:43:39.869Z,18.65
2022-11-02T12:46:20.943Z,18.25
2022-11-02T12:48:59.583Z,18.85
2022-11-02T12:51:34.399Z,19.74
2022-11-02T12:54:11.339Z,18.14
2022-11-02T12:56:46.655Z,17.69
2022-11-02T12:59:20.978Z,17.48
2022-11-02T13:01:53.124Z,18.25
2022-11-02T13:04:28.130Z,18.41
2022-11-02T13:07:04.465Z,18.65
2022-11-02T13:09:36.889Z,18.11
2022-11-02T13:12:09.515Z,18.23
2022-11-02T13:14:41.702Z,18.82
2022-11-02T13:17:15.971Z,19.22
2022-11-02T13:19:48.716Z,19.17
2022-11-02T13:22:21.470Z,19.04
2022-11-02T13:24:54.729Z,19.10
2022-11-02T13:27:38.582Z,19.22
2022-11-02T13:30:15.536Z,18.89
2022-11-02T13:32:46.676Z,18.40
2022-11-02T13:35:20.037Z,18.73
2022-11-02T13:37:54.588Z,19.67
2022-11-02T13:40:27.540Z,18.96
2022-11-02T13:43:27.627Z,18.85
2022-11-02T13:46:24.869Z,19.24
2022-11-02T13:48:58.931Z,19.73
2022-11-02T13:51:36.020Z,19.87
2022-11-02T13:54:13.987Z,19.35
2022-11-02T13:56:42.733Z,19.32
2022-11-02T13:59:19.553Z,19.18
2022-11-02T14:01:48.038Z,18.95
2022-11-02T14:04:17.348Z,18.06
2022-11-02T14:06:54.219Z,17.89
2022-11-02T14:09:29.241Z,17.95
2022-11-02T14:12:29.568Z,17.90
2022-11-02T14:15:42.410Z,18.22
2022-11-02T14:18:31.193Z,18.28
2022-11-02T14:21:00.368Z,18.23
2022-11-02T14:23:39.104Z,18.68
2022-11-02T14:26:34.647Z,18.44
2022-11-02T14:29:26.779Z,18.41
2022-11-02T14:32:03.580Z,18.23
2022-11-02T14:34:50.519Z,18.28
2022-11-02T14:37:50.208Z,18.21
2022-11-02T14:40:35.619Z,17.79
2022-11-02T14:43:31.664Z,17.70
2022-11-02T14:46:09.706Z,17.96
2022-11-02T14:48:47.205Z,18.05
2022-11-02T14:51:20.560Z,18.02
2022-11-02T14:53:50.792Z,17.31
2022-11-02T14:56:18.872Z,16.85
2022-11-02T14:58:54.979Z,17.08
2022-11-02T15:01:23.799Z,17.50
2022-11-02T15:03:52.529Z,17.19
2022-11-02T15:06:24.123Z,17.23
2022-11-02T15:08:55.413Z,16.89
2022-11-02T15:11:46.132Z,17.04
2022-11-02T15:14:55.135Z,16.66
2022-11-02T15:17:52.771Z,16.87
2022-11-02T15:20:32.694Z,16.87
2022-11-02T15:23:28.709Z,16.26
2022-11-02T15:25:59.918Z,16.25
2022-11-02T15:28:30.777Z,16.06
2022-11-02T15:31:04.000Z,16.26
2022-11-02T15:33:38.201Z,15.86
2022-11-02T15:36:09.213Z,16.16
2022-11-02T15:38:40.289Z,16.45
2022-11-02T15:41:22.965Z,16.37
2022-11-02T15:44:07.765Z,16.29
2022-11-02T15:46:53.676Z,16.27
2022-11-02T15:49:38.221Z,16.07
2022-11-02T15:52:18.585Z,16.34
2022-11-02T15:54:58.312Z,15.54
2022-11-02T15:57:37.418Z,15.85
2022-11-02T16:00:15.974Z,15.52
2022-11-02T16:02:48.138Z,15.40
2022-11-02T16:05:20.920Z,15.80
2022-11-02T16:08:10.021Z,15.81
2022-11-02T16:10:39.138Z,15.33
2022-11-02T16:13:16.980Z,15.82
2022-11-02T16:15:46.530Z,15.78
2022-11-02T16:18:27.638Z,15.32
2022-11-02T16:20:57.376Z,15.49
2022-11-02T16:23:28.051Z,15.25
2022-11-02T16:25:58.544Z,15.76
2022-11-02T16:28:27.957Z,15.72
2022-11-02T16:31:10.046Z,16.10
2022-11-02T16:33:45.461Z,15.72
2022-11-02T16:36:16.981Z,15.52
2022-11-02T16:38:49.560Z,15.26
2022-11-02T16:41:18.033Z,15.34
2022-11-02T16:43:48.062Z,14.89
2022-11-02T16:46:18.102Z,14.86
2022-11-02T16:49:12.877Z,15.05
2022-11-02T16:51:41.391Z,15.33
2022-11-02T16:54:29.608Z,14.86
2022-11-02T16:57:04.946Z,15.22
2022-11-02T16:59:37.079Z,15.12
2022-11-02T17:02:06.513Z,14.94
2022-11-02T17:04:42.249Z,15.03
2022-11-02T17:07:14.056Z,15.02
2022-11-02T17:09:42.305Z,14.79
2022-11-02T17:12:15.299Z,14.82
2022-11-02T17:14:45.618Z,14.96
2022-11-02T17:17:40.184Z,14.34
2022-11-02T17:20:22.130Z,14.61
2022-11-02T17:22:58.923Z,14.97
2022-11-02T17:25:29.319Z,14.60
2022-11-02T17:27:58.856Z,14.23
2022-11-02T17:30:45.550Z,14.49
2022-11-02T17:33:28.871Z,14.16
2022-11-02T17:36:06.407Z,14.17
2022-11-02T17:38:35.228Z,14.56
2022-11-02T17:41:23.480Z,14.62
2022-11-02T17:43:50.672Z,14.69
2022-11-02T17:46:18.692Z,14.28
2022-11-02T17:48:46.668Z,14.82
2022-11-02T17:51:16.377Z,14.57
2022-11-02T17:53:44.397Z,14.63
2022-11-02T17:56:12.428Z,14.13
2022-11-02T17:58:40.755Z,14.14
2022-11-02T18:01:11.686Z,14.16
2022-11-02T18:03:40.009Z,14.69
2022-11-02T18:06:08.446Z,14.64
2022-11-02T18:08:51.888Z,14.84
2022-11-02T18:11:25.785Z,14.76
2022-11-02T18:13:54.494Z,14.69
2022-11-02T18:16:22.538Z,15.28
2022-11-02T18:18:50.516Z,15.33
2022-11-02T18:21:18.528Z,15.44
2022-11-02T18:23:47.921Z,15.67
2022-11-02T18:26:16.222Z,15.35
2022-11-02T18:28:44.239Z,14.72
2022-11-02T18:31:12.210Z,15.00
2022-11-02T18:33:40.227Z,14.06
2022-11-02T18:36:10.267Z,13.79
2022-11-02T18:38:38.672Z,14.41
2022-11-02T18:41:23.111Z,13.58
2022-11-02T18:43:51.055Z,13.84
2022-11-02T18:46:19.263Z,13.92
2022-11-02T18:48:47.471Z,14.18
2022-11-02T18:51:15.596Z,13.95
2022-11-02T18:53:43.587Z,14.63
2022-11-02T18:56:13.316Z,14.48
2022-11-02T18:58:41.295Z,13.82
2022-11-02T19:01:10.614Z,14.11
2022-11-02T19:03:38.913Z,13.86
2022-11-02T19:06:25.073Z,13.58
2022-11-02T19:09:10.407Z,13.48
2022-11-02T19:11:39.888Z,13.80
2022-11-02T19:14:08.596Z,13.29
2022-11-02T19:16:37.077Z,13.36
2022-11-02T19:19:05.420Z,13.51
2022-11-02T19:21:33.428Z,13.58
2022-11-02T19:24:01.621Z,13.79
2022-11-02T19:26:29.593Z,13.41
2022-11-02T19:29:03.055Z,13.76
2022-11-02T19:31:36.426Z,13.27
2022-11-02T19:34:04.546Z,13.60
2022-11-02T19:36:32.836Z,13.85
2022-11-02T19:39:03.392Z,13.51
2022-11-02T19:41:32.159Z,13.34
2022-11-02T19:44:01.647Z,13.83
2022-11-02T19:46:29.762Z,13.52
2022-11-02T19:48:58.400Z,13.62
2022-11-02T19:51:28.379Z,12.99
2022-11-02T19:53:58.316Z,13.35
2022-11-02T19:56:27.646Z,13.08
2022-11-02T19:58:56.955Z,13.81
2022-11-02T20:01:28.179Z,13.61
2022-11-02T20:03:57.104Z,13.86
2022-11-02T20:06:27.293Z,13.79
2022-11-02T20:08:57.045Z,13.80
2022-11-02T20:11:27.207Z,13.18
2022-11-02T20:13:56.960Z,13.54
2022-11-02T20:16:26.953Z,13.86
2022-11-02T20:18:59.096Z,13.43
2022-11-02T20:21:33.481Z,13.52
2022-11-02T20:24:05.603Z,13.77
2022-11-02T20:26:36.468Z,13.85
2022-11-02T20:29:06.918Z,13.81
2022-11-02T20:31:38.051Z,13.67
2022-11-02T20:34:09.077Z,13.29
2022-11-02T20:36:37.123Z,13.28
2022-11-02T20:39:07.584Z,12.84
2022-11-02T20:41:35.625Z,13.38
2022-11-02T20:44:03.916Z,13.82
2022-11-02T20:46:41.974Z,13.86
2022-11-02T20:49:29.319Z,13.60
2022-11-02T20:51:59.893Z,14.03
2022-11-02T20:54:29.877Z,13.45
2022-11-02T20:56:58.191Z,13.50
2022-11-02T20:59:26.361Z,13.44
2022-11-02T21:01:54.483Z,12.94
2022-11-02T21:04:23.876Z,13.03
2022-11-02T21:06:52.136Z,12.66
2022-11-02T21:09:20.646Z,12.44
2022-11-02T21:12:06.390Z,12.80
2022-11-02T21:14:34.511Z,12.75
2022-11-02T21:17:03.241Z,12.35
2022-11-02T21:19:32.615Z,12.27
2022-11-02T21:22:00.837Z,12.38
2022-11-02T21:24:29.643Z,12.37
2022-11-02T21:26:58.041Z,12.61
2022-11-02T21:29:26.035Z,12.15
2022-11-02T21:31:54.055Z,12.17
2022-11-02T21:34:22.045Z,12.28
2022-11-02T21:36:51.499Z,12.44
2022-11-02T21:39:19.543Z,12.14
2022-11-02T21:41:48.255Z,12.47
2022-11-02T21:44:16.308Z,12.36
2022-11-02T21:46:44.367Z,11.71
2022-11-02T21:49:13.100Z,11.66
2022-11-02T21:51:42.624Z,11.56
2022-11-02T21:54:12.009Z,11.91
2022-11-02T21:56:40.092Z,12.19
2022-11-02T21:59:09.499Z,11.87
2022-11-02T22:01:46.873Z,11.62
2022-11-02T22:04:17.288Z,11.50
2022-11-02T22:06:45.408Z,11.48
2022-11-02T22:09:14.987Z,11.48
2022-11-02T22:11:44.938Z,11.59
2022-11-02T22:14:13.955Z,11.39
2022-11-02T22:16:43.799Z,11.66
2022-11-02T22:19:13.572Z,12.18
2022-11-02T22:21:43.147Z,11.76
2022-11-02T22:24:11.363Z,11.96
2022-11-02T22:26:40.963Z,11.79
2022-11-02T22:29:09.580Z,11.65
2022-11-02T22:31:39.704Z,11.44
2022-11-02T22:34:09.151Z,11.61
2022-11-02T22:36:38.429Z,11.71
2022-11-02T22:39:07.380Z,11.80
2022-11-02T22:41:36.652Z,11.87
2022-11-02T22:44:07.983Z,11.53
2022-11-02T22:46:37.831Z,11.36
2022-11-02T22:49:06.790Z,11.69
2022-11-02T22:51:37.083Z,11.83
2022-11-02T22:54:06.944Z,11.63
2022-11-02T22:56:36.011Z,11.76
2022-11-02T22:59:06.287Z,11.74
2022-11-02T23:01:34.660Z,11.40
2022-11-02T23:04:03.114Z,11.32
2022-11-02T23:06:31.352Z,11.50
2022-11-02T23:09:00.335Z,11.35
2022-11-02T23:11:29.760Z,11.18
2022-11-02T23:13:59.750Z,11.30
2022-11-02T23:16:30.794Z,10.79
2022-11-02T23:19:25.218Z,10.93
2022-11-02T23:22:09.885Z,11.18
2022-11-02T23:24:55.192Z,10.92
2022-11-02T23:27:23.268Z,11.18
2022-11-02T23:30:09.109Z,10.93
2022-11-02T23:32:39.186Z,10.64
2022-11-02T23:35:25.488Z,10.71
2022-11-02T23:38:03.296Z,10.95
2022-11-02T23:40:31.889Z,10.85
2022-11-02T23:42:59.873Z,10.75
2022-11-02T23:45:27.855Z,10.69
2022-11-02T23:48:01.373Z,10.70
2022-11-02T23:50:54.093Z,10.85
2022-11-02T23:53:41.278Z,10.73
2022-11-02T23:56:33.466Z,10.75
2022-11-02T23:59:07.815Z,11.02
